sensor_id;sensor_type;location;lat;lon;timestamp;P1;durP1;ratioP1;P2;durP2;ratioP2
22017;SDS011;11173;51.050;7.108;2022-09-11T00:04:58;3.50;;;3.22;;
22017;SDS011;11173;51.050;7.108;2022-09-11T00:10:18;4.22;;;3.83;;
22017;SDS011;11173;51.050;7.108;2022-09-11T00:15:40;2.80;;;2.60;;
22017;SDS011;11173;51.050;7.108;2022-09-11T00:21:03;6.30;;;5.70;;
22017;SDS011;11173;51.050;7.108;2022-09-11T00:26:26;8.95;;;6.90;;
22017;SDS011;11173;51.050;7.108;2022-09-11T00:31:47;7.50;;;6.47;;
22017;SDS011;11173;51.050;7.108;2022-09-11T00:37:08;8.15;;;7.10;;
22017;SDS011;11173;51.050;7.108;2022-09-11T00:42:29;10.18;;;8.82;;
22017;SDS011;11173;51.050;7.108;2022-09-11T00:47:49;10.25;;;8.40;;
22017;SDS011;11173;51.050;7.108;2022-09-11T00:53:12;6.05;;;5.45;;
22017;SDS011;11173;51.050;7.108;2022-09-11T00:58:37;8.82;;;7.45;;
22017;SDS011;11173;51.050;7.108;2022-09-11T01:04:02;7.63;;;6.82;;
22017;SDS011;11173;51.050;7.108;2022-09-11T01:09:25;4.47;;;4.07;;
22017;SDS011;11173;51.050;7.108;2022-09-11T01:14:58;4.85;;;4.30;;
22017;SDS011;11173;51.050;7.108;2022-09-11T01:20:34;9.18;;;8.23;;
22017;SDS011;11173;51.050;7.108;2022-09-11T01:32:21;6.75;;;6.15;;
22017;SDS011;11173;51.050;7.108;2022-09-11T01:43:28;8.52;;;7.10;;
22017;SDS011;11173;51.050;7.108;2022-09-11T01:48:57;5.63;;;5.13;;
22017;SDS011;11173;51.050;7.108;2022-09-11T01:54:24;3.80;;;3.50;;
22017;SDS011;11173;51.050;7.108;2022-09-11T01:59:50;5.65;;;5.15;;
22017;SDS011;11173;51.050;7.108;2022-09-11T02:05:17;13.63;;;11.38;;
22017;SDS011;11173;51.050;7.108;2022-09-11T02:10:44;8.65;;;7.68;;
22017;SDS011;11173;51.050;7.108;2022-09-11T02:21:57;12.38;;;10.52;;
22017;SDS011;11173;51.050;7.108;2022-09-11T02:27:22;12.93;;;10.93;;
22017;SDS011;11173;51.050;7.108;2022-09-11T02:32:44;18.35;;;13.18;;
22017;SDS011;11173;51.050;7.108;2022-09-11T02:43:47;10.93;;;9.82;;
22017;SDS011;11173;51.050;7.108;2022-09-11T02:49:19;11.85;;;10.52;;
22017;SDS011;11173;51.050;7.108;2022-09-11T02:55:08;9.55;;;8.60;;
22017;SDS011;11173;51.050;7.108;2022-09-11T03:00:38;6.25;;;5.75;;
22017;SDS011;11173;51.050;7.108;2022-09-11T03:05:59;6.18;;;5.57;;
22017;SDS011;11173;51.050;7.108;2022-09-11T03:11:20;7.45;;;6.75;;
22017;SDS011;11173;51.050;7.108;2022-09-11T03:16:40;9.13;;;8.23;;
22017;SDS011;11173;51.050;7.108;2022-09-11T03:22:01;6.90;;;6.20;;
22017;SDS011;11173;51.050;7.108;2022-09-11T03:27:22;7.07;;;6.38;;
22017;SDS011;11173;51.050;7.108;2022-09-11T03:32:43;8.73;;;7.82;;
22017;SDS011;11173;51.050;7.108;2022-09-11T03:38:03;6.38;;;5.78;;
22017;SDS011;11173;51.050;7.108;2022-09-11T03:43:24;7.13;;;6.47;;
22017;SDS011;11173;51.050;7.108;2022-09-11T03:48:45;7.43;;;6.72;;
22017;SDS011;11173;51.050;7.108;2022-09-11T03:54:06;10.75;;;8.13;;
22017;SDS011;11173;51.050;7.108;2022-09-11T03:59:27;10.98;;;9.63;;
22017;SDS011;11173;51.050;7.108;2022-09-11T04:04:48;11.65;;;9.77;;
22017;SDS011;11173;51.050;7.108;2022-09-11T04:10:09;11.88;;;10.07;;
22017;SDS011;11173;51.050;7.108;2022-09-11T04:15:30;13.40;;;10.20;;
22017;SDS011;11173;51.050;7.108;2022-09-11T04:20:52;14.88;;;12.18;;
22017;SDS011;11173;51.050;7.108;2022-09-11T04:26:13;14.60;;;10.57;;
22017;SDS011;11173;51.050;7.108;2022-09-11T04:31:36;16.30;;;11.93;;
22017;SDS011;11173;51.050;7.108;2022-09-11T04:36:57;13.73;;;11.45;;
22017;SDS011;11173;51.050;7.108;2022-09-11T04:42:18;15.18;;;11.43;;
22017;SDS011;11173;51.050;7.108;2022-09-11T04:47:38;11.55;;;9.80;;
22017;SDS011;11173;51.050;7.108;2022-09-11T04:53:00;13.05;;;9.77;;
22017;SDS011;11173;51.050;7.108;2022-09-11T04:58:21;8.75;;;7.72;;
22017;SDS011;11173;51.050;7.108;2022-09-11T05:03:41;9.73;;;8.38;;
22017;SDS011;11173;51.050;7.108;2022-09-11T05:09:03;9.82;;;8.02;;
22017;SDS011;11173;51.050;7.108;2022-09-11T05:14:27;7.90;;;6.68;;
22017;SDS011;11173;51.050;7.108;2022-09-11T05:19:48;6.68;;;5.88;;
22017;SDS011;11173;51.050;7.108;2022-09-11T05:25:08;7.88;;;6.53;;
22017;SDS011;11173;51.050;7.108;2022-09-11T05:30:29;7.00;;;5.32;;
22017;SDS011;11173;51.050;7.108;2022-09-11T05:35:50;11.68;;;8.90;;
22017;SDS011;11173;51.050;7.108;2022-09-11T05:41:12;12.63;;;9.15;;
22017;SDS011;11173;51.050;7.108;2022-09-11T05:46:34;13.38;;;10.88;;
22017;SDS011;11173;51.050;7.108;2022-09-11T05:51:55;11.43;;;8.50;;
22017;SDS011;11173;51.050;7.108;2022-09-11T05:57:15;14.55;;;9.57;;
22017;SDS011;11173;51.050;7.108;2022-09-11T06:02:36;15.68;;;10.70;;
22017;SDS011;11173;51.050;7.108;2022-09-11T06:07:57;15.55;;;11.25;;
22017;SDS011;11173;51.050;7.108;2022-09-11T06:13:17;13.70;;;9.77;;
22017;SDS011;11173;51.050;7.108;2022-09-11T06:18:38;16.73;;;11.20;;
22017;SDS011;11173;51.050;7.108;2022-09-11T06:23:59;21.17;;;13.15;;
22017;SDS011;11173;51.050;7.108;2022-09-11T06:29:19;19.48;;;12.10;;
22017;SDS011;11173;51.050;7.108;2022-09-11T06:34:40;22.13;;;13.25;;
22017;SDS011;11173;51.050;7.108;2022-09-11T06:40:01;26.08;;;15.07;;
22017;SDS011;11173;51.050;7.108;2022-09-11T06:45:21;21.10;;;12.82;;
22017;SDS011;11173;51.050;7.108;2022-09-11T06:50:42;19.80;;;11.98;;
22017;SDS011;11173;51.050;7.108;2022-09-11T06:56:04;26.05;;;13.90;;
22017;SDS011;11173;51.050;7.108;2022-09-11T07:01:26;19.52;;;12.50;;
22017;SDS011;11173;51.050;7.108;2022-09-11T07:06:47;22.60;;;12.52;;
22017;SDS011;11173;51.050;7.108;2022-09-11T07:12:11;19.13;;;12.13;;
22017;SDS011;11173;51.050;7.108;2022-09-11T07:17:32;18.83;;;11.32;;
22017;SDS011;11173;51.050;7.108;2022-09-11T07:22:53;27.75;;;16.98;;
22017;SDS011;11173;51.050;7.108;2022-09-11T07:28:14;37.75;;;20.73;;
22017;SDS011;11173;51.050;7.108;2022-09-11T07:33:35;26.83;;;16.00;;
22017;SDS011;11173;51.050;7.108;2022-09-11T07:38:57;30.85;;;17.27;;
22017;SDS011;11173;51.050;7.108;2022-09-11T07:44:18;24.92;;;14.23;;
22017;SDS011;11173;51.050;7.108;2022-09-11T07:49:39;30.13;;;16.80;;
22017;SDS011;11173;51.050;7.108;2022-09-11T07:55:00;34.35;;;18.98;;
22017;SDS011;11173;51.050;7.108;2022-09-11T08:00:21;25.20;;;15.38;;
22017;SDS011;11173;51.050;7.108;2022-09-11T08:05:41;27.35;;;16.25;;
22017;SDS011;11173;51.050;7.108;2022-09-11T08:11:06;17.60;;;12.25;;
22017;SDS011;11173;51.050;7.108;2022-09-11T08:16:28;10.90;;;8.63;;
22017;SDS011;11173;51.050;7.108;2022-09-11T08:21:49;16.40;;;12.38;;
22017;SDS011;11173;51.050;7.108;2022-09-11T08:27:10;17.98;;;12.73;;
22017;SDS011;11173;51.050;7.108;2022-09-11T08:32:31;14.60;;;11.60;;
22017;SDS011;11173;51.050;7.108;2022-09-11T08:37:52;16.58;;;10.48;;
22017;SDS011;11173;51.050;7.108;2022-09-11T08:43:22;10.25;;;7.93;;
22017;SDS011;11173;51.050;7.108;2022-09-11T08:48:48;11.65;;;9.95;;
22017;SDS011;11173;51.050;7.108;2022-09-11T08:54:31;10.70;;;9.45;;
22017;SDS011;11173;51.050;7.108;2022-09-11T09:39:01;11.50;;;9.07;;
22017;SDS011;11173;51.050;7.108;2022-09-11T09:55:39;10.00;;;7.73;;
22017;SDS011;11173;51.050;7.108;2022-09-11T10:01:00;9.18;;;6.72;;
22017;SDS011;11173;51.050;7.108;2022-09-11T10:06:21;10.02;;;8.15;;
22017;SDS011;11173;51.050;7.108;2022-09-11T10:11:42;11.65;;;8.35;;
22017;SDS011;11173;51.050;7.108;2022-09-11T10:17:04;16.55;;;11.55;;
22017;SDS011;11173;51.050;7.108;2022-09-11T10:22:27;17.38;;;13.30;;
22017;SDS011;11173;51.050;7.108;2022-09-11T10:27:53;18.40;;;13.35;;
22017;SDS011;11173;51.050;7.108;2022-09-11T10:33:29;15.20;;;11.48;;
22017;SDS011;11173;51.050;7.108;2022-09-11T10:38:53;10.82;;;7.97;;
22017;SDS011;11173;51.050;7.108;2022-09-11T10:44:17;14.55;;;11.60;;
22017;SDS011;11173;51.050;7.108;2022-09-11T10:49:37;16.83;;;11.85;;
22017;SDS011;11173;51.050;7.108;2022-09-11T11:00:34;11.32;;;8.80;;
22017;SDS011;11173;51.050;7.108;2022-09-11T11:40:25;4.53;;;4.13;;
22017;SDS011;11173;51.050;7.108;2022-09-11T11:45:57;4.60;;;4.20;;
22017;SDS011;11173;51.050;7.108;2022-09-11T11:51:28;6.95;;;6.13;;
22017;SDS011;11173;51.050;7.108;2022-09-11T11:57:01;13.60;;;10.82;;
22017;SDS011;11173;51.050;7.108;2022-09-11T12:02:32;10.20;;;8.60;;
22017;SDS011;11173;51.050;7.108;2022-09-11T12:08:02;12.65;;;11.05;;
22017;SDS011;11173;51.050;7.108;2022-09-11T12:13:27;11.30;;;8.77;;
22017;SDS011;11173;51.050;7.108;2022-09-11T12:19:15;12.35;;;10.05;;
22017;SDS011;11173;51.050;7.108;2022-09-11T12:41:13;8.95;;;8.15;;
22017;SDS011;11173;51.050;7.108;2022-09-11T12:52:03;7.53;;;6.82;;
22017;SDS011;11173;51.050;7.108;2022-09-11T12:57:27;7.60;;;6.88;;
22017;SDS011;11173;51.050;7.108;2022-09-11T13:02:54;5.97;;;5.47;;
22017;SDS011;11173;51.050;7.108;2022-09-11T13:08:18;9.88;;;8.98;;
22017;SDS011;11173;51.050;7.108;2022-09-11T13:13:43;8.15;;;7.35;;
22017;SDS011;11173;51.050;7.108;2022-09-11T13:19:14;6.65;;;6.10;;
22017;SDS011;11173;51.050;7.108;2022-09-11T13:24:37;5.68;;;5.25;;
22017;SDS011;11173;51.050;7.108;2022-09-11T13:29:57;6.78;;;6.15;;
22017;SDS011;11173;51.050;7.108;2022-09-11T13:35:22;5.55;;;5.15;;
22017;SDS011;11173;51.050;7.108;2022-09-11T13:40:47;7.05;;;6.38;;
22017;SDS011;11173;51.050;7.108;2022-09-11T13:51:34;5.47;;;5.07;;
22017;SDS011;11173;51.050;7.108;2022-09-11T14:18:43;3.65;;;3.40;;
22017;SDS011;11173;51.050;7.108;2022-09-11T14:29:53;3.95;;;3.55;;
22017;SDS011;11173;51.050;7.108;2022-09-11T14:35:14;4.13;;;3.83;;
22017;SDS011;11173;51.050;7.108;2022-09-11T14:40:35;2.80;;;2.60;;
22017;SDS011;11173;51.050;7.108;2022-09-11T14:45:56;3.35;;;3.15;;
22017;SDS011;11173;51.050;7.108;2022-09-11T14:51:18;3.15;;;2.95;;
22017;SDS011;11173;51.050;7.108;2022-09-11T14:56:40;5.10;;;4.60;;
22017;SDS011;11173;51.050;7.108;2022-09-11T15:02:01;3.53;;;3.28;;
22017;SDS011;11173;51.050;7.108;2022-09-11T15:07:22;3.22;;;2.92;;
22017;SDS011;11173;51.050;7.108;2022-09-11T15:12:44;2.80;;;2.60;;
22017;SDS011;11173;51.050;7.108;2022-09-11T15:18:05;2.47;;;2.28;;
22017;SDS011;11173;51.050;7.108;2022-09-11T15:23:27;3.17;;;2.97;;
22017;SDS011;11173;51.050;7.108;2022-09-11T15:28:48;4.00;;;3.70;;
22017;SDS011;11173;51.050;7.108;2022-09-11T15:34:10;2.95;;;2.75;;
22017;SDS011;11173;51.050;7.108;2022-09-11T15:39:32;2.40;;;2.30;;
22017;SDS011;11173;51.050;7.108;2022-09-11T15:44:53;3.63;;;3.33;;
22017;SDS011;11173;51.050;7.108;2022-09-11T15:50:14;3.97;;;3.67;;
22017;SDS011;11173;51.050;7.108;2022-09-11T15:55:37;3.53;;;3.33;;
22017;SDS011;11173;51.050;7.108;2022-09-11T16:00:58;4.25;;;3.85;;
22017;SDS011;11173;51.050;7.108;2022-09-11T16:06:19;2.88;;;2.67;;
22017;SDS011;11173;51.050;7.108;2022-09-11T16:11:41;3.60;;;3.30;;
22017;SDS011;11173;51.050;7.108;2022-09-11T16:17:04;2.15;;;2.05;;
22017;SDS011;11173;51.050;7.108;2022-09-11T16:22:26;2.58;;;2.38;;
22017;SDS011;11173;51.050;7.108;2022-09-11T16:27:50;3.40;;;3.20;;
22017;SDS011;11173;51.050;7.108;2022-09-11T16:33:12;2.75;;;2.55;;
22017;SDS011;11173;51.050;7.108;2022-09-11T16:38:34;3.80;;;3.50;;
22017;SDS011;11173;51.050;7.108;2022-09-11T16:43:56;3.25;;;3.05;;
22017;SDS011;11173;51.050;7.108;2022-09-11T16:49:17;3.63;;;3.42;;
22017;SDS011;11173;51.050;7.108;2022-09-11T16:54:38;3.03;;;2.83;;
22017;SDS011;11173;51.050;7.108;2022-09-11T16:59:59;2.92;;;2.60;;
22017;SDS011;11173;51.050;7.108;2022-09-11T17:05:19;2.75;;;2.55;;
22017;SDS011;11173;51.050;7.108;2022-09-11T17:10:41;2.97;;;2.78;;
22017;SDS011;11173;51.050;7.108;2022-09-11T17:16:05;2.80;;;2.60;;
22017;SDS011;11173;51.050;7.108;2022-09-11T17:21:30;3.00;;;2.80;;
22017;SDS011;11173;51.050;7.108;2022-09-11T17:26:56;3.88;;;3.58;;
22017;SDS011;11173;51.050;7.108;2022-09-11T17:32:17;3.85;;;3.50;;
22017;SDS011;11173;51.050;7.108;2022-09-11T17:37:40;1.98;;;1.88;;
22017;SDS011;11173;51.050;7.108;2022-09-11T17:43:02;2.83;;;2.50;;
22017;SDS011;11173;51.050;7.108;2022-09-11T17:48:23;3.58;;;3.28;;
22017;SDS011;11173;51.050;7.108;2022-09-11T17:53:48;4.22;;;3.92;;
22017;SDS011;11173;51.050;7.108;2022-09-11T17:59:16;3.30;;;3.00;;
22017;SDS011;11173;51.050;7.108;2022-09-11T18:04:37;4.35;;;3.95;;
22017;SDS011;11173;51.050;7.108;2022-09-11T18:09:57;3.10;;;2.90;;
22017;SDS011;11173;51.050;7.108;2022-09-11T18:15:18;2.67;;;2.47;;
22017;SDS011;11173;51.050;7.108;2022-09-11T18:20:39;6.57;;;5.90;;
22017;SDS011;11173;51.050;7.108;2022-09-11T18:26:00;6.30;;;5.70;;
22017;SDS011;11173;51.050;7.108;2022-09-11T18:31:20;7.40;;;6.70;;
22017;SDS011;11173;51.050;7.108;2022-09-11T18:36:42;7.82;;;6.95;;
22017;SDS011;11173;51.050;7.108;2022-09-11T18:42:04;8.98;;;8.05;;
22017;SDS011;11173;51.050;7.108;2022-09-11T18:47:26;8.00;;;7.15;;
22017;SDS011;11173;51.050;7.108;2022-09-11T18:52:47;9.68;;;8.07;;
22017;SDS011;11173;51.050;7.108;2022-09-11T18:58:10;15.07;;;10.50;;
22017;SDS011;11173;51.050;7.108;2022-09-11T19:03:30;13.40;;;10.63;;
22017;SDS011;11173;51.050;7.108;2022-09-11T19:08:52;12.98;;;9.23;;
22017;SDS011;11173;51.050;7.108;2022-09-11T19:14:14;10.50;;;9.20;;
22017;SDS011;11173;51.050;7.108;2022-09-11T19:19:34;12.23;;;10.48;;
22017;SDS011;11173;51.050;7.108;2022-09-11T19:24:55;14.30;;;10.98;;
22017;SDS011;11173;51.050;7.108;2022-09-11T19:30:17;11.60;;;10.10;;
22017;SDS011;11173;51.050;7.108;2022-09-11T19:35:39;11.82;;;9.73;;
22017;SDS011;11173;51.050;7.108;2022-09-11T19:41:01;9.63;;;8.60;;
22017;SDS011;11173;51.050;7.108;2022-09-11T19:46:24;14.48;;;10.68;;
22017;SDS011;11173;51.050;7.108;2022-09-11T19:51:46;13.43;;;10.60;;
22017;SDS011;11173;51.050;7.108;2022-09-11T19:57:07;16.55;;;12.75;;
22017;SDS011;11173;51.050;7.108;2022-09-11T20:02:28;18.40;;;12.93;;
22017;SDS011;11173;51.050;7.108;2022-09-11T20:07:49;19.05;;;13.77;;
22017;SDS011;11173;51.050;7.108;2022-09-11T20:13:09;17.20;;;13.32;;
22017;SDS011;11173;51.050;7.108;2022-09-11T20:18:30;18.92;;;13.25;;
22017;SDS011;11173;51.050;7.108;2022-09-11T20:23:52;17.17;;;13.00;;
22017;SDS011;11173;51.050;7.108;2022-09-11T20:29:14;17.33;;;12.80;;
22017;SDS011;11173;51.050;7.108;2022-09-11T20:34:35;17.40;;;13.25;;
22017;SDS011;11173;51.050;7.108;2022-09-11T20:39:56;18.08;;;13.98;;
22017;SDS011;11173;51.050;7.108;2022-09-11T20:45:16;16.52;;;12.57;;
22017;SDS011;11173;51.050;7.108;2022-09-11T20:50:37;19.33;;;13.25;;
22017;SDS011;11173;51.050;7.108;2022-09-11T20:56:02;20.05;;;14.63;;
22017;SDS011;11173;51.050;7.108;2022-09-11T21:01:26;19.88;;;15.10;;
22017;SDS011;11173;51.050;7.108;2022-09-11T21:06:51;21.40;;;15.27;;
22017;SDS011;11173;51.050;7.108;2022-09-11T21:12:12;20.25;;;14.82;;
22017;SDS011;11173;51.050;7.108;2022-09-11T21:17:33;18.70;;;13.93;;
22017;SDS011;11173;51.050;7.108;2022-09-11T21:22:54;17.92;;;13.00;;
22017;SDS011;11173;51.050;7.108;2022-09-11T21:28:14;19.80;;;14.68;;
22017;SDS011;11173;51.050;7.108;2022-09-11T21:33:36;19.17;;;13.75;;
22017;SDS011;11173;51.050;7.108;2022-09-11T21:38:57;20.95;;;14.63;;
22017;SDS011;11173;51.050;7.108;2022-09-11T21:44:17;19.25;;;14.05;;
22017;SDS011;11173;51.050;7.108;2022-09-11T21:49:38;19.70;;;13.93;;
22017;SDS011;11173;51.050;7.108;2022-09-11T21:54:59;20.63;;;14.68;;
22017;SDS011;11173;51.050;7.108;2022-09-11T22:00:19;20.63;;;14.45;;
22017;SDS011;11173;51.050;7.108;2022-09-11T22:05:41;20.95;;;15.07;;
22017;SDS011;11173;51.050;7.108;2022-09-11T22:11:02;18.88;;;13.73;;
22017;SDS011;11173;51.050;7.108;2022-09-11T22:16:24;18.38;;;13.95;;
22017;SDS011;11173;51.050;7.108;2022-09-11T22:21:44;22.45;;;14.50;;
22017;SDS011;11173;51.050;7.108;2022-09-11T22:27:05;20.17;;;14.27;;
22017;SDS011;11173;51.050;7.108;2022-09-11T22:32:27;18.00;;;12.80;;
22017;SDS011;11173;51.050;7.108;2022-09-11T22:37:49;18.30;;;13.77;;
22017;SDS011;11173;51.050;7.108;2022-09-11T22:43:10;20.67;;;14.65;;
22017;SDS011;11173;51.050;7.108;2022-09-11T22:48:30;23.50;;;15.63;;
22017;SDS011;11173;51.050;7.108;2022-09-11T22:53:52;19.25;;;13.98;;
22017;SDS011;11173;51.050;7.108;2022-09-11T22:59:12;17.83;;;14.10;;
22017;SDS011;11173;51.050;7.108;2022-09-11T23:04:33;21.63;;;14.45;;
22017;SDS011;11173;51.050;7.108;2022-09-11T23:09:54;20.58;;;13.68;;
22017;SDS011;11173;51.050;7.108;2022-09-11T23:15:14;17.73;;;13.65;;
22017;SDS011;11173;51.050;7.108;2022-09-11T23:20:35;18.48;;;13.50;;
22017;SDS011;11173;51.050;7.108;2022-09-11T23:25:56;19.55;;;13.38;;
22017;SDS011;11173;51.050;7.108;2022-09-11T23:31:18;17.38;;;13.65;;
22017;SDS011;11173;51.050;7.108;2022-09-11T23:36:41;17.85;;;12.60;;
22017;SDS011;11173;51.050;7.108;2022-09-11T23:42:02;21.67;;;14.50;;
22017;SDS011;11173;51.050;7.108;2022-09-11T23:47:22;16.48;;;12.70;;
22017;SDS011;11173;51.050;7.108;2022-09-11T23:52:43;19.73;;;12.90;;
22017;SDS011;11173;51.050;7.108;2022-09-11T23:58:04;18.15;;;12.48;;
